sensor_id;sensor_type;location;lat;lon;timestamp;pressure;altitude;pressure_sealevel;temperature;humidity
12879;BME280;20617;49.476;10.986;2024-01-30T00:00:42;99685.31;;;4.27;100.00
12879;BME280;20617;49.476;10.986;2024-01-30T00:02:43;99699.97;;;4.28;100.00
12879;BME280;20617;49.476;10.986;2024-01-30T00:04:44;99683.59;;;4.23;100.00
12879;BME280;20617;49.476;10.986;2024-01-30T00:06:45;99687.88;;;4.21;100.00
12879;BME280;20617;49.476;10.986;2024-01-30T00:08:45;99689.56;;;4.15;100.00
12879;BME280;20617;49.476;10.986;2024-01-30T00:10:46;99684.34;;;4.10;100.00
12879;BME280;20617;49.476;10.986;2024-01-30T00:12:47;99686.09;;;4.11;100.00
12879;BME280;20617;49.476;10.986;2024-01-30T00:14:53;99669.78;;;4.12;100.00
12879;BME280;20617;49.476;10.986;2024-01-30T00:16:54;99685.25;;;4.11;100.00
12879;BME280;20617;49.476;10.986;2024-01-30T00:18:55;99687.78;;;4.09;100.00
12879;BME280;20617;49.476;10.986;2024-01-30T00:20:55;99686.06;;;4.05;100.00
12879;BME280;20617;49.476;10.986;2024-01-30T00:22:56;99684.28;;;3.98;100.00
12879;BME280;20617;49.476;10.986;2024-01-30T00:24:57;99677.41;;;3.97;100.00
12879;BME280;20617;49.476;10.986;2024-01-30T00:26:58;99677.38;;;3.91;100.00
12879;BME280;20617;49.476;10.986;2024-01-30T00:28:58;99681.66;;;3.92;100.00
12879;BME280;20617;49.476;10.986;2024-01-30T00:31:02;99686.78;;;3.87;100.00
12879;BME280;20617;49.476;10.986;2024-01-30T00:33:03;99676.38;;;3.76;100.00
12879;BME280;20617;49.476;10.986;2024-01-30T00:35:05;99678.06;;;3.70;100.00
12879;BME280;20617;49.476;10.986;2024-01-30T00:37:06;99677.19;;;3.72;100.00
12879;BME280;20617;49.476;10.986;2024-01-30T00:39:06;99672.94;;;3.73;100.00
12879;BME280;20617;49.476;10.986;2024-01-30T00:41:08;99671.97;;;3.63;100.00
12879;BME280;20617;49.476;10.986;2024-01-30T00:43:09;99675.38;;;3.60;100.00
12879;BME280;20617;49.476;10.986;2024-01-30T00:45:12;99675.41;;;3.63;100.00
12879;BME280;20617;49.476;10.986;2024-01-30T00:47:15;99674.59;;;3.68;100.00
12879;BME280;20617;49.476;10.986;2024-01-30T00:49:16;99670.31;;;3.68;100.00
12879;BME280;20617;49.476;10.986;2024-01-30T00:51:17;99676.34;;;3.72;100.00
12879;BME280;20617;49.476;10.986;2024-01-30T00:53:17;99670.34;;;3.74;100.00
12879;BME280;20617;49.476;10.986;2024-01-30T00:55:18;99676.38;;;3.76;100.00
12879;BME280;20617;49.476;10.986;2024-01-30T00:57:19;99673.81;;;3.76;100.00
12879;BME280;20617;49.476;10.986;2024-01-30T00:59:20;99668.66;;;3.78;100.00
12879;BME280;20617;49.476;10.986;2024-01-30T01:01:21;99672.97;;;3.76;100.00
12879;BME280;20617;49.476;10.986;2024-01-30T01:03:24;99677.22;;;3.74;100.00
12879;BME280;20617;49.476;10.986;2024-01-30T01:05:25;99676.34;;;3.70;100.00
12879;BME280;20617;49.476;10.986;2024-01-30T01:07:27;99670.31;;;3.67;100.00
12879;BME280;20617;49.476;10.986;2024-01-30T01:09:28;99661.69;;;3.66;100.00
12879;BME280;20617;49.476;10.986;2024-01-30T01:11:28;99672.00;;;3.65;100.00
12879;BME280;20617;49.476;10.986;2024-01-30T01:13:29;99678.88;;;3.64;100.00
12879;BME280;20617;49.476;10.986;2024-01-30T01:15:31;99674.56;;;3.66;100.00
12879;BME280;20617;49.476;10.986;2024-01-30T01:17:31;99672.00;;;3.66;100.00
12879;BME280;20617;49.476;10.986;2024-01-30T01:19:35;99672.81;;;3.63;100.00
12879;BME280;20617;49.476;10.986;2024-01-30T01:21:36;99668.53;;;3.58;100.00
12879;BME280;20617;49.476;10.986;2024-01-30T01:23:37;99666.75;;;3.54;100.00
12879;BME280;20617;49.476;10.986;2024-01-30T01:25:38;99670.19;;;3.53;100.00
12879;BME280;20617;49.476;10.986;2024-01-30T01:27:38;99667.56;;;3.51;100.00
12879;BME280;20617;49.476;10.986;2024-01-30T01:29:39;99674.47;;;3.52;100.00
12879;BME280;20617;49.476;10.986;2024-01-30T01:31:40;99671.88;;;3.51;100.00
12879;BME280;20617;49.476;10.986;2024-01-30T01:33:40;99668.44;;;3.50;100.00
12879;BME280;20617;49.476;10.986;2024-01-30T01:35:44;99672.72;;;3.47;100.00
12879;BME280;20617;49.476;10.986;2024-01-30T01:37:46;99669.28;;;3.46;100.00
12879;BME280;20617;49.476;10.986;2024-01-30T01:39:46;99664.97;;;3.47;100.00
12879;BME280;20617;49.476;10.986;2024-01-30T01:41:48;99652.09;;;3.47;100.00
12879;BME280;20617;49.476;10.986;2024-01-30T01:43:48;99653.81;;;3.46;100.00
12879;BME280;20617;49.476;10.986;2024-01-30T01:45:49;99646.94;;;3.44;100.00
12879;BME280;20617;49.476;10.986;2024-01-30T01:47:51;99642.56;;;3.36;100.00
12879;BME280;20617;49.476;10.986;2024-01-30T01:49:52;99649.38;;;3.30;100.00
12879;BME280;20617;49.476;10.986;2024-01-30T01:51:59;99643.41;;;3.32;100.00
12879;BME280;20617;49.476;10.986;2024-01-30T01:54:03;99641.69;;;3.34;100.00
12879;BME280;20617;49.476;10.986;2024-01-30T01:56:05;99639.06;;;3.30;100.00
12879;BME280;20617;49.476;10.986;2024-01-30T01:58:06;99644.13;;;3.22;100.00
12879;BME280;20617;49.476;10.986;2024-01-30T02:00:08;99641.59;;;3.24;100.00
12879;BME280;20617;49.476;10.986;2024-01-30T02:02:11;99646.78;;;3.28;100.00
12879;BME280;20617;49.476;10.986;2024-01-30T02:04:13;99657.09;;;3.31;100.00
12879;BME280;20617;49.476;10.986;2024-01-30T02:06:14;99660.59;;;3.36;100.00
12879;BME280;20617;49.476;10.986;2024-01-30T02:08:18;99651.19;;;3.42;100.00
12879;BME280;20617;49.476;10.986;2024-01-30T02:10:18;99650.38;;;3.47;100.00
12879;BME280;20617;49.476;10.986;2024-01-30T02:12:19;99652.09;;;3.48;100.00
12879;BME280;20617;49.476;10.986;2024-01-30T02:14:20;99652.16;;;3.53;100.00
12879;BME280;20617;49.476;10.986;2024-01-30T02:16:21;99655.59;;;3.53;100.00
12879;BME280;20617;49.476;10.986;2024-01-30T02:18:22;99648.69;;;3.51;100.00
12879;BME280;20617;49.476;10.986;2024-01-30T02:20:24;99642.69;;;3.52;100.00
12879;BME280;20617;49.476;10.986;2024-01-30T02:22:28;99640.09;;;3.47;100.00
12879;BME280;20617;49.476;10.986;2024-01-30T02:24:29;99639.22;;;3.44;100.00
12879;BME280;20617;49.476;10.986;2024-01-30T02:26:30;99638.28;;;3.37;100.00
12879;BME280;20617;49.476;10.986;2024-01-30T02:28:30;99631.34;;;3.31;100.00
12879;BME280;20617;49.476;10.986;2024-01-30T02:30:31;99635.66;;;3.34;100.00
12879;BME280;20617;49.476;10.986;2024-01-30T02:32:32;99627.13;;;3.35;100.00
12879;BME280;20617;49.476;10.986;2024-01-30T02:34:32;99631.44;;;3.37;100.00
12879;BME280;20617;49.476;10.986;2024-01-30T02:36:33;99647.75;;;3.39;100.00
12879;BME280;20617;49.476;10.986;2024-01-30T02:38:36;99646.94;;;3.45;100.00
12879;BME280;20617;49.476;10.986;2024-01-30T02:40:37;99655.53;;;3.47;100.00
12879;BME280;20617;49.476;10.986;2024-01-30T02:42:39;99644.41;;;3.50;100.00
12879;BME280;20617;49.476;10.986;2024-01-30T02:44:39;99640.09;;;3.49;100.00
12879;BME280;20617;49.476;10.986;2024-01-30T02:46:40;99639.22;;;3.48;100.00
12879;BME280;20617;49.476;10.986;2024-01-30T02:48:41;99643.59;;;3.52;100.00
12879;BME280;20617;49.476;10.986;2024-01-30T02:50:41;99639.28;;;3.53;100.00
12879;BME280;20617;49.476;10.986;2024-01-30T02:52:42;99647.00;;;3.53;100.00
12879;BME280;20617;49.476;10.986;2024-01-30T02:54:46;99638.41;;;3.49;100.00
12879;BME280;20617;49.476;10.986;2024-01-30T02:56:46;99634.09;;;3.47;100.00
12879;BME280;20617;49.476;10.986;2024-01-30T02:58:47;99647.00;;;3.50;100.00
12879;BME280;20617;49.476;10.986;2024-01-30T03:00:48;99638.38;;;3.48;100.00
12879;BME280;20617;49.476;10.986;2024-01-30T03:02:51;99637.50;;;3.46;100.00
12879;BME280;20617;49.476;10.986;2024-01-30T03:04:52;99640.09;;;3.47;100.00
12879;BME280;20617;49.476;10.986;2024-01-30T03:06:52;99630.69;;;3.51;100.00
12879;BME280;20617;49.476;10.986;2024-01-30T03:08:53;99637.53;;;3.52;100.00
12879;BME280;20617;49.476;10.986;2024-01-30T03:10:56;99637.56;;;3.55;100.00
12879;BME280;20617;49.476;10.986;2024-01-30T03:12:57;99635.84;;;3.54;100.00
12879;BME280;20617;49.476;10.986;2024-01-30T03:14:58;99634.13;;;3.53;100.00
12879;BME280;20617;49.476;10.986;2024-01-30T03:16:59;99627.22;;;3.49;100.00
12879;BME280;20617;49.476;10.986;2024-01-30T03:18:59;99635.81;;;3.51;100.00
12879;BME280;20617;49.476;10.986;2024-01-30T03:21:00;99628.09;;;3.49;100.00
12879;BME280;20617;49.476;10.986;2024-01-30T03:23:03;99621.25;;;3.50;100.00
12879;BME280;20617;49.476;10.986;2024-01-30T03:25:04;99627.25;;;3.52;100.00
12879;BME280;20617;49.476;10.986;2024-01-30T03:27:08;99628.13;;;3.54;100.00
12879;BME280;20617;49.476;10.986;2024-01-30T03:29:08;99629.81;;;3.52;100.00
12879;BME280;20617;49.476;10.986;2024-01-30T03:31:09;99627.25;;;3.52;100.00
12879;BME280;20617;49.476;10.986;2024-01-30T03:33:10;99630.66;;;3.48;100.00
12879;BME280;20617;49.476;10.986;2024-01-30T03:35:10;99628.94;;;3.47;100.00
12879;BME280;20617;49.476;10.986;2024-01-30T03:37:11;99630.56;;;3.35;100.00
12879;BME280;20617;49.476;10.986;2024-01-30T03:39:12;99627.97;;;3.32;100.00
12879;BME280;20617;49.476;10.986;2024-01-30T03:41:12;99637.41;;;3.35;100.00
12879;BME280;20617;49.476;10.986;2024-01-30T03:43:16;99633.13;;;3.35;100.00
12879;BME280;20617;49.476;10.986;2024-01-30T03:45:16;99641.69;;;3.34;100.00
12879;BME280;20617;49.476;10.986;2024-01-30T03:47:17;99637.41;;;3.36;100.00
12879;BME280;20617;49.476;10.986;2024-01-30T03:49:18;99634.00;;;3.37;100.00
12879;BME280;20617;49.476;10.986;2024-01-30T03:51:19;99645.13;;;3.32;100.00
12879;BME280;20617;49.476;10.986;2024-01-30T03:53:19;99643.38;;;3.29;100.00
12879;BME280;20617;49.476;10.986;2024-01-30T03:55:20;99641.66;;;3.31;100.00
12879;BME280;20617;49.476;10.986;2024-01-30T03:57:21;99639.06;;;3.31;100.00
12879;BME280;20617;49.476;10.986;2024-01-30T03:59:24;99630.53;;;3.34;100.00
12879;BME280;20617;49.476;10.986;2024-01-30T04:01:25;99638.25;;;3.34;100.00
12879;BME280;20617;49.476;10.986;2024-01-30T04:03:26;99633.97;;;3.33;100.00
12879;BME280;20617;49.476;10.986;2024-01-30T04:05:27;99633.94;;;3.34;100.00
12879;BME280;20617;49.476;10.986;2024-01-30T04:07:27;99630.50;;;3.31;100.00
12879;BME280;20617;49.476;10.986;2024-01-30T04:09:28;99632.22;;;3.30;100.00
12879;BME280;20617;49.476;10.986;2024-01-30T04:11:29;99635.66;;;3.29;100.00
12879;BME280;20617;49.476;10.986;2024-01-30T04:13:29;99630.47;;;3.28;100.00
12879;BME280;20617;49.476;10.986;2024-01-30T04:15:33;99632.19;;;3.27;100.00
12879;BME280;20617;49.476;10.986;2024-01-30T04:17:33;99631.34;;;3.30;100.00
12879;BME280;20617;49.476;10.986;2024-01-30T04:19:37;99640.00;;;3.35;100.00
12879;BME280;20617;49.476;10.986;2024-01-30T04:21:38;99631.38;;;3.34;100.00
12879;BME280;20617;49.476;10.986;2024-01-30T04:23:39;99640.00;;;3.36;100.00
12879;BME280;20617;49.476;10.986;2024-01-30T04:25:40;99633.16;;;3.38;100.00
12879;BME280;20617;49.476;10.986;2024-01-30T04:27:41;99632.28;;;3.38;100.00
12879;BME280;20617;49.476;10.986;2024-01-30T04:29:41;99634.03;;;3.42;100.00
12879;BME280;20617;49.476;10.986;2024-01-30T04:31:45;99637.47;;;3.43;100.00
12879;BME280;20617;49.476;10.986;2024-01-30T04:33:46;99633.22;;;3.46;100.00
12879;BME280;20617;49.476;10.986;2024-01-30T04:35:47;99647.00;;;3.53;100.00
12879;BME280;20617;49.476;10.986;2024-01-30T04:37:47;99641.88;;;3.57;100.00
12879;BME280;20617;49.476;10.986;2024-01-30T04:39:48;99637.59;;;3.56;100.00
12879;BME280;20617;49.476;10.986;2024-01-30T04:41:49;99645.34;;;3.58;100.00
12879;BME280;20617;49.476;10.986;2024-01-30T04:43:50;99642.75;;;3.59;100.00
12879;BME280;20617;49.476;10.986;2024-01-30T04:45:50;99645.34;;;3.58;100.00
12879;BME280;20617;49.476;10.986;2024-01-30T04:47:54;99654.81;;;3.63;100.00
12879;BME280;20617;49.476;10.986;2024-01-30T04:49:54;99646.22;;;3.63;100.00
12879;BME280;20617;49.476;10.986;2024-01-30T04:51:55;99650.53;;;3.66;100.00
12879;BME280;20617;49.476;10.986;2024-01-30T04:53:56;99647.13;;;3.67;100.00
12879;BME280;20617;49.476;10.986;2024-01-30T04:56:00;99647.94;;;3.61;100.00
12879;BME280;20617;49.476;10.986;2024-01-30T04:58:00;99647.97;;;3.66;100.00
12879;BME280;20617;49.476;10.986;2024-01-30T05:00:01;99648.00;;;3.67;100.00
12879;BME280;20617;49.476;10.986;2024-01-30T05:02:02;99651.41;;;3.65;100.00
12879;BME280;20617;49.476;10.986;2024-01-30T05:04:07;99658.25;;;3.66;100.00
12879;BME280;20617;49.476;10.986;2024-01-30T05:06:07;99659.09;;;3.61;100.00
12879;BME280;20617;49.476;10.986;2024-01-30T05:08:08;99654.81;;;3.63;100.00
12879;BME280;20617;49.476;10.986;2024-01-30T05:10:09;99663.44;;;3.67;100.00
12879;BME280;20617;49.476;10.986;2024-01-30T05:12:10;99664.31;;;3.71;100.00
12879;BME280;20617;49.476;10.986;2024-01-30T05:14:10;99659.16;;;3.69;100.00
12879;BME280;20617;49.476;10.986;2024-01-30T05:16:11;99661.69;;;3.66;100.00
12879;BME280;20617;49.476;10.986;2024-01-30T05:18:12;99661.63;;;3.57;100.00
12879;BME280;20617;49.476;10.986;2024-01-30T05:20:16;99659.06;;;3.55;100.00
12879;BME280;20617;49.476;10.986;2024-01-30T05:22:17;99664.22;;;3.58;100.00
12879;BME280;20617;49.476;10.986;2024-01-30T05:24:19;99667.69;;;3.62;100.00
12879;BME280;20617;49.476;10.986;2024-01-30T05:26:20;99662.47;;;3.56;100.00
12879;BME280;20617;49.476;10.986;2024-01-30T05:28:21;99667.63;;;3.56;100.00
12879;BME280;20617;49.476;10.986;2024-01-30T05:30:21;99674.50;;;3.55;100.00
12879;BME280;20617;49.476;10.986;2024-01-30T05:32:22;99672.78;;;3.56;100.00
12879;BME280;20617;49.476;10.986;2024-01-30T05:34:23;99665.88;;;3.53;100.00
12879;BME280;20617;49.476;10.986;2024-01-30T05:36:26;99671.91;;;3.54;100.00
12879;BME280;20617;49.476;10.986;2024-01-30T05:38:30;99671.00;;;3.52;100.00
12879;BME280;20617;49.476;10.986;2024-01-30T05:40:31;99671.91;;;3.54;100.00
12879;BME280;20617;49.476;10.986;2024-01-30T05:42:31;99669.28;;;3.51;100.00
12879;BME280;20617;49.476;10.986;2024-01-30T05:44:32;99676.19;;;3.55;100.00
12879;BME280;20617;49.476;10.986;2024-01-30T05:46:33;99677.91;;;3.54;100.00
12879;BME280;20617;49.476;10.986;2024-01-30T05:48:34;99675.38;;;3.59;100.00
12879;BME280;20617;49.476;10.986;2024-01-30T05:50:35;99678.84;;;3.61;100.00
12879;BME280;20617;49.476;10.986;2024-01-30T05:52:38;99671.13;;;3.61;100.00
12879;BME280;20617;49.476;10.986;2024-01-30T05:54:39;99670.28;;;3.65;100.00
12879;BME280;20617;49.476;10.986;2024-01-30T05:56:39;99674.53;;;3.63;100.00
12879;BME280;20617;49.476;10.986;2024-01-30T05:58:40;99672.81;;;3.63;100.00
12879;BME280;20617;49.476;10.986;2024-01-30T06:00:41;99677.16;;;3.68;100.00
12879;BME280;20617;49.476;10.986;2024-01-30T06:02:41;99674.59;;;3.69;100.00
12879;BME280;20617;49.476;10.986;2024-01-30T06:04:42;99672.00;;;3.66;100.00
12879;BME280;20617;49.476;10.986;2024-01-30T06:06:44;99672.00;;;3.65;100.00
12879;BME280;20617;49.476;10.986;2024-01-30T06:08:47;99675.41;;;3.62;100.00
12879;BME280;20617;49.476;10.986;2024-01-30T06:10:48;99680.59;;;3.65;100.00
12879;BME280;20617;49.476;10.986;2024-01-30T06:12:49;99676.28;;;3.66;100.00
12879;BME280;20617;49.476;10.986;2024-01-30T06:14:49;99675.44;;;3.68;100.00
12879;BME280;20617;49.476;10.986;2024-01-30T06:16:50;99678.06;;;3.71;100.00
12879;BME280;20617;49.476;10.986;2024-01-30T06:18:51;99686.63;;;3.67;100.00
12879;BME280;20617;49.476;10.986;2024-01-30T06:20:52;99678.03;;;3.67;100.00
12879;BME280;20617;49.476;10.986;2024-01-30T06:22:54;99679.75;;;3.69;100.00
12879;BME280;20617;49.476;10.986;2024-01-30T06:24:58;99678.91;;;3.67;100.00
12879;BME280;20617;49.476;10.986;2024-01-30T06:26:59;99681.47;;;3.69;100.00
12879;BME280;20617;49.476;10.986;2024-01-30T06:28:59;99678.03;;;3.67;100.00
12879;BME280;20617;49.476;10.986;2024-01-30T06:31:01;99679.75;;;3.68;100.00
12879;BME280;20617;49.476;10.986;2024-01-30T06:33:01;99672.88;;;3.67;100.00
12879;BME280;20617;49.476;10.986;2024-01-30T06:35:03;99675.50;;;3.74;100.00
12879;BME280;20617;49.476;10.986;2024-01-30T06:37:04;99675.47;;;3.70;100.00
12879;BME280;20617;49.476;10.986;2024-01-30T06:39:05;99679.75;;;3.68;100.00
12879;BME280;20617;49.476;10.986;2024-01-30T06:41:08;99676.28;;;3.64;100.00
12879;BME280;20617;49.476;10.986;2024-01-30T06:43:09;99671.94;;;3.58;100.00
12879;BME280;20617;49.476;10.986;2024-01-30T06:45:10;99678.81;;;3.58;100.00
12879;BME280;20617;49.476;10.986;2024-01-30T06:47:10;99682.25;;;3.60;100.00
12879;BME280;20617;49.476;10.986;2024-01-30T06:49:11;99680.53;;;3.60;100.00
12879;BME280;20617;49.476;10.986;2024-01-30T06:51:12;99674.53;;;3.60;100.00
12879;BME280;20617;49.476;10.986;2024-01-30T06:53:13;99675.41;;;3.63;100.00
12879;BME280;20617;49.476;10.986;2024-01-30T06:55:14;99671.94;;;3.58;100.00
12879;BME280;20617;49.476;10.986;2024-01-30T06:57:17;99674.56;;;3.61;100.00
12879;BME280;20617;49.476;10.986;2024-01-30T06:59:18;99684.75;;;3.51;100.00
12879;BME280;20617;49.476;10.986;2024-01-30T07:01:19;99681.31;;;3.52;100.00
12879;BME280;20617;49.476;10.986;2024-01-30T07:03:19;99689.91;;;3.52;100.00
12879;BME280;20617;49.476;10.986;2024-01-30T07:05:20;99689.88;;;3.51;100.00
12879;BME280;20617;49.476;10.986;2024-01-30T07:07:21;99694.22;;;3.53;100.00
12879;BME280;20617;49.476;10.986;2024-01-30T07:09:21;99686.47;;;3.53;100.00
12879;BME280;20617;49.476;10.986;2024-01-30T07:11:22;99695.09;;;3.55;100.00
12879;BME280;20617;49.476;10.986;2024-01-30T07:13:26;99683.97;;;3.58;100.00
12879;BME280;20617;49.476;10.986;2024-01-30T07:15:27;99694.25;;;3.56;100.00
12879;BME280;20617;49.476;10.986;2024-01-30T07:17:29;99698.50;;;3.54;100.00
12879;BME280;20617;49.476;10.986;2024-01-30T07:19:30;99684.81;;;3.58;100.00
12879;BME280;20617;49.476;10.986;2024-01-30T07:21:30;99698.56;;;3.60;100.00
12879;BME280;20617;49.476;10.986;2024-01-30T07:23:31;99697.75;;;3.65;100.00
12879;BME280;20617;49.476;10.986;2024-01-30T07:25:33;99702.88;;;3.63;100.00
12879;BME280;20617;49.476;10.986;2024-01-30T07:27:34;99714.03;;;3.63;100.00
12879;BME280;20617;49.476;10.986;2024-01-30T07:29:37;99702.91;;;3.65;100.00
12879;BME280;20617;49.476;10.986;2024-01-30T07:31:38;99699.47;;;3.64;100.00
12879;BME280;20617;49.476;10.986;2024-01-30T07:33:38;99704.63;;;3.64;100.00
12879;BME280;20617;49.476;10.986;2024-01-30T07:35:39;99699.53;;;3.70;100.00
12879;BME280;20617;49.476;10.986;2024-01-30T07:37:40;99710.69;;;3.74;100.00
12879;BME280;20617;49.476;10.986;2024-01-30T07:39:41;99707.25;;;3.72;100.00
12879;BME280;20617;49.476;10.986;2024-01-30T07:41:41;99715.84;;;3.74;100.00
12879;BME280;20617;49.476;10.986;2024-01-30T07:43:43;99708.97;;;3.74;100.00
12879;BME280;20617;49.476;10.986;2024-01-30T07:45:48;99717.53;;;3.72;100.00
12879;BME280;20617;49.476;10.986;2024-01-30T07:47:48;99713.25;;;3.72;100.00
12879;BME280;20617;49.476;10.986;2024-01-30T07:49:49;99722.78;;;3.82;100.00
12879;BME280;20617;49.476;10.986;2024-01-30T07:51:50;99713.34;;;3.83;100.00
12879;BME280;20617;49.476;10.986;2024-01-30T07:53:52;99711.66;;;3.85;100.00
12879;BME280;20617;49.476;10.986;2024-01-30T07:55:52;99708.22;;;3.86;100.00
12879;BME280;20617;49.476;10.986;2024-01-30T07:57:54;99716.75;;;3.80;100.00
12879;BME280;20617;49.476;10.986;2024-01-30T07:59:54;99715.03;;;3.79;100.00
12879;BME280;20617;49.476;10.986;2024-01-30T08:02:04;99714.22;;;3.86;100.00
12879;BME280;20617;49.476;10.986;2024-01-30T08:04:05;99715.13;;;3.92;100.00
12879;BME280;20617;49.476;10.986;2024-01-30T08:06:06;99721.13;;;3.88;100.00
12879;BME280;20617;49.476;10.986;2024-01-30T08:08:06;99718.59;;;3.95;100.00
12879;BME280;20617;49.476;10.986;2024-01-30T08:10:08;99714.34;;;3.97;100.00
12879;BME280;20617;49.476;10.986;2024-01-30T08:12:08;99717.81;;;4.02;100.00
12879;BME280;20617;49.476;10.986;2024-01-30T08:14:09;99716.13;;;4.06;100.00
12879;BME280;20617;49.476;10.986;2024-01-30T08:16:10;99725.59;;;4.12;100.00
12879;BME280;20617;49.476;10.986;2024-01-30T08:18:13;99712.78;;;4.21;100.00
12879;BME280;20617;49.476;10.986;2024-01-30T08:20:14;99720.56;;;4.25;100.00
12879;BME280;20617;49.476;10.986;2024-01-30T08:22:15;99716.19;;;4.18;100.00
12879;BME280;20617;49.476;10.986;2024-01-30T08:24:16;99717.13;;;4.29;100.00
12879;BME280;20617;49.476;10.986;2024-01-30T08:26:16;99722.34;;;4.34;100.00
12879;BME280;20617;49.476;10.986;2024-01-30T08:28:17;99717.19;;;4.34;100.00
12879;BME280;20617;49.476;10.986;2024-01-30T08:30:18;99713.81;;;4.43;100.00
12879;BME280;20617;49.476;10.986;2024-01-30T08:32:19;99718.94;;;4.44;100.00
12879;BME280;20617;49.476;10.986;2024-01-30T08:34:22;99712.16;;;4.57;100.00
12879;BME280;20617;49.476;10.986;2024-01-30T08:36:25;99707.06;;;4.66;100.00
12879;BME280;20617;49.476;10.986;2024-01-30T08:38:25;99711.34;;;4.70;100.00
12879;BME280;20617;49.476;10.986;2024-01-30T08:40:26;99713.94;;;4.70;100.00
12879;BME280;20617;49.476;10.986;2024-01-30T08:42:27;99716.56;;;4.75;100.00
12879;BME280;20617;49.476;10.986;2024-01-30T08:44:28;99706.22;;;4.75;100.00
12879;BME280;20617;49.476;10.986;2024-01-30T08:46:28;99711.41;;;4.86;100.00
12879;BME280;20617;49.476;10.986;2024-01-30T08:48:29;99714.91;;;4.94;100.00
12879;BME280;20617;49.476;10.986;2024-01-30T08:50:32;99715.81;;;4.97;100.00
12879;BME280;20617;49.476;10.986;2024-01-30T08:52:33;99706.31;;;4.99;100.00
12879;BME280;20617;49.476;10.986;2024-01-30T08:54:34;99708.91;;;4.98;100.00
12879;BME280;20617;49.476;10.986;2024-01-30T08:56:34;99706.34;;;5.01;100.00
12879;BME280;20617;49.476;10.986;2024-01-30T08:58:35;99704.66;;;5.09;100.00
12879;BME280;20617;49.476;10.986;2024-01-30T09:00:37;99710.66;;;5.11;100.00
12879;BME280;20617;49.476;10.986;2024-01-30T09:02:38;99708.94;;;5.10;100.00
12879;BME280;20617;49.476;10.986;2024-01-30T09:04:39;99711.53;;;5.07;100.00
12879;BME280;20617;49.476;10.986;2024-01-30T09:06:42;99707.25;;;5.15;100.00
12879;BME280;20617;49.476;10.986;2024-01-30T09:08:43;99700.38;;;5.16;100.00
12879;BME280;20617;49.476;10.986;2024-01-30T09:10:44;99710.69;;;5.20;100.00
12879;BME280;20617;49.476;10.986;2024-01-30T09:12:44;99714.13;;;5.19;100.00
12879;BME280;20617;49.476;10.986;2024-01-30T09:14:45;99709.84;;;5.18;100.00
12879;BME280;20617;49.476;10.986;2024-01-30T09:16:46;99708.16;;;5.24;100.00
12879;BME280;20617;49.476;10.986;2024-01-30T09:18:46;99706.44;;;5.36;100.00
12879;BME280;20617;49.476;10.986;2024-01-30T09:20:47;99709.91;;;5.48;100.00
12879;BME280;20617;49.476;10.986;2024-01-30T09:22:50;99714.22;;;5.55;100.00
12879;BME280;20617;49.476;10.986;2024-01-30T09:24:52;99713.38;;;5.59;100.00
12879;BME280;20617;49.476;10.986;2024-01-30T09:26:53;99719.38;;;5.70;100.00
12879;BME280;20617;49.476;10.986;2024-01-30T09:28:54;99712.50;;;5.78;100.00
12879;BME280;20617;49.476;10.986;2024-01-30T09:30:55;99725.44;;;5.81;100.00
12879;BME280;20617;49.476;10.986;2024-01-30T09:32:55;99715.13;;;5.86;100.00
12879;BME280;20617;49.476;10.986;2024-01-30T09:34:56;99716.00;;;5.94;100.00
12879;BME280;20617;49.476;10.986;2024-01-30T09:36:57;99711.66;;;5.88;100.00
12879;BME280;20617;49.476;10.986;2024-01-30T09:39:01;99716.88;;;5.99;100.00
12879;BME280;20617;49.476;10.986;2024-01-30T09:41:03;99718.56;;;6.02;100.00
12879;BME280;20617;49.476;10.986;2024-01-30T09:43:11;99711.69;;;6.13;100.00
12879;BME280;20617;49.476;10.986;2024-01-30T09:45:18;99706.53;;;6.11;100.00
12879;BME280;20617;49.476;10.986;2024-01-30T09:47:19;99705.66;;;6.17;100.00
12879;BME280;20617;49.476;10.986;2024-01-30T09:49:20;99708.25;;;6.23;100.00
12879;BME280;20617;49.476;10.986;2024-01-30T09:51:22;99705.63;;;6.28;100.00
12879;BME280;20617;49.476;10.986;2024-01-30T09:53:24;99709.94;;;6.32;100.00
12879;BME280;20617;49.476;10.986;2024-01-30T09:55:28;99712.50;;;6.40;100.00
12879;BME280;20617;49.476;10.986;2024-01-30T09:57:29;99715.09;;;6.44;100.00
12879;BME280;20617;49.476;10.986;2024-01-30T09:59:34;99715.06;;;6.58;100.00
12879;BME280;20617;49.476;10.986;2024-01-30T10:01:36;99704.69;;;6.63;100.00
12879;BME280;20617;49.476;10.986;2024-01-30T10:03:37;99708.97;;;6.71;100.00
12879;BME280;20617;49.476;10.986;2024-01-30T10:05:40;99709.84;;;6.75;100.00
12879;BME280;20617;49.476;10.986;2024-01-30T10:07:50;99702.91;;;6.83;100.00
12879;BME280;20617;49.476;10.986;2024-01-30T10:09:51;99705.47;;;6.86;100.00
12879;BME280;20617;49.476;10.986;2024-01-30T10:11:55;99710.66;;;6.92;100.00
12879;BME280;20617;49.476;10.986;2024-01-30T10:13:56;99704.53;;;7.01;100.00
12879;BME280;20617;49.476;10.986;2024-01-30T10:15:58;99696.78;;;7.04;100.00
12879;BME280;20617;49.476;10.986;2024-01-30T10:18:01;99696.75;;;7.13;100.00
12879;BME280;20617;49.476;10.986;2024-01-30T10:20:04;99692.41;;;7.15;100.00
12879;BME280;20617;49.476;10.986;2024-01-30T10:22:05;99695.84;;;7.22;100.00
12879;BME280;20617;49.476;10.986;2024-01-30T10:24:06;99699.25;;;7.30;100.00
12879;BME280;20617;49.476;10.986;2024-01-30T10:26:07;99694.91;;;7.32;100.00
12879;BME280;20617;49.476;10.986;2024-01-30T10:28:11;99703.53;;;7.39;100.00
12879;BME280;20617;49.476;10.986;2024-01-30T10:30:14;99697.41;;;7.46;100.00
12879;BME280;20617;49.476;10.986;2024-01-30T10:32:15;99691.34;;;7.50;100.00
12879;BME280;20617;49.476;10.986;2024-01-30T10:34:16;99697.34;;;7.58;100.00